Time;durP1;ratioP1;P1;durP2;ratioP2;P2;SDS_P1;SDS_P2;PMS_P1;PMS_P2;Temp;Humidity;BMP_temperature;BMP_pressure;BME280_temperature;BME280_humidity;BME280_pressure;Samples;Min_cycle;Max_cycle;Signal;HPM_P1;HPM_P2
2021/11/22 00:00:30;;;;;;;28.63;13.70;;;;;;;5.41;100.00;97089.63;5048106;28;20499;-91
2021/11/22 00:02:59;;;;;;;30.85;14.48;;;;;;;5.46;100.00;97100.03;5051279;28;20462;-90
2021/11/22 00:05:25;;;;;;;34.30;14.57;;;;;;;5.29;100.00;97084.94;5046653;28;20050;-91
2021/11/22 00:07:51;;;;;;;25.38;12.88;;;;;;;5.37;100.00;97084.56;5043969;28;20025;-91
2021/11/22 00:10:17;;;;;;;32.67;15.55;;;;;;;5.36;100.00;97102.25;5052041;28;20024;-91
2021/11/22 00:12:43;;;;;;;28.75;14.10;;;;;;;5.41;100.00;97080.84;5046505;28;20104;-93
2021/11/22 00:15:12;;;;;;;31.42;15.07;;;;;;;5.45;100.00;97099.16;5051158;28;20031;-91
2021/11/22 00:17:40;;;;;;;27.27;13.13;;;;;;;5.57;100.00;97108.31;5048338;28;20020;-92
2021/11/22 00:20:09;;;;;;;39.47;16.67;;;;;;;5.36;100.00;97088.13;5051435;28;20047;-92
2021/11/22 00:22:35;;;;;;;35.67;16.00;;;;;;;5.41;100.00;97091.44;5047686;28;20097;-91
2021/11/22 00:25:02;;;;;;;31.63;15.50;;;;;;;5.37;100.00;97096.03;5067906;28;20098;-92
2021/11/22 00:27:28;;;;;;;29.70;14.82;;;;;;;5.31;100.00;97096.34;5051134;28;20115;-92
2021/11/22 00:29:54;;;;;;;26.85;13.77;;;;;;;5.20;100.00;97065.97;5031056;28;20059;-93
2021/11/22 00:32:19;;;;;;;30.77;13.95;;;;;;;5.24;100.00;97088.75;5052719;28;20036;-91
2021/11/22 00:34:45;;;;;;;34.67;15.95;;;;;;;5.21;100.00;97083.59;5048408;28;20029;-91
2021/11/22 00:37:16;;;;;;;19.05;9.85;;;;;;;5.44;100.00;97099.25;5060243;28;20097;-91
2021/11/22 00:39:42;;;;;;;25.95;12.07;;;;;;;5.45;100.00;97079.72;5051698;28;20045;-92
2021/11/22 00:42:09;;;;;;;26.02;13.07;;;;;;;5.48;100.00;97072.50;5045101;28;20044;-90
2021/11/22 00:44:39;;;;;;;25.38;11.80;;;;;;;5.54;100.00;97084.59;5025957;28;20029;-93
2021/11/22 00:47:06;;;;;;;26.48;12.32;;;;;;;5.53;100.00;97085.53;5050757;28;20036;-93
2021/11/22 00:49:32;;;;;;;27.45;13.10;;;;;;;5.48;100.00;97090.19;5022926;28;20100;-92
2021/11/22 00:51:58;;;;;;;23.65;11.65;;;;;;;5.39;100.00;97083.56;5025522;28;20047;-93
2021/11/22 00:54:24;;;;;;;19.42;10.60;;;;;;;5.52;100.00;97091.78;5026440;28;20025;-92
2021/11/22 00:56:49;;;;;;;22.52;11.73;;;;;;;5.53;100.00;97089.97;5051107;28;20107;-92
2021/11/22 00:59:15;;;;;;;23.88;11.75;;;;;;;5.56;100.00;97079.22;5035251;28;20115;-91
2021/11/22 01:01:42;;;;;;;23.35;12.02;;;;;;;5.52;99.86;97094.41;5033351;28;20025;-92
2021/11/22 01:04:08;;;;;;;21.77;11.90;;;;;;;5.28;100.00;97075.28;5049902;28;20401;-91
2021/11/22 01:06:33;;;;;;;20.42;9.68;;;;;;;5.27;100.00;97073.53;5037728;28;20026;-92
2021/11/22 01:08:59;;;;;;;20.88;10.98;;;;;;;5.26;100.00;97079.78;5062440;28;20095;-91
2021/11/22 01:11:25;;;;;;;21.48;11.85;;;;;;;5.33;100.00;97088.28;5037139;28;20037;-91
2021/11/22 01:13:50;;;;;;;18.63;10.52;;;;;;;5.28;100.00;97090.31;5033609;28;20106;-91
2021/11/22 01:16:16;;;;;;;23.13;11.05;;;;;;;5.26;100.00;97092.19;5057202;28;20032;-90
2021/11/22 01:18:42;;;;;;;27.30;13.30;;;;;;;5.17;100.00;97071.44;5025926;28;20090;-91
2021/11/22 01:21:07;;;;;;;21.95;11.48;;;;;;;5.25;100.00;97077.22;5036464;28;20029;-91
2021/11/22 01:23:33;;;;;;;28.13;11.32;;;;;;;5.27;100.00;97085.94;5028345;28;20025;-91
2021/11/22 01:25:59;;;;;;;22.38;11.45;;;;;;;5.19;100.00;97086.31;5026018;28;20500;-92
2021/11/22 01:28:27;;;;;;;27.92;14.02;;;;;;;5.08;100.00;97063.88;5018474;28;20036;-92
2021/11/22 01:30:53;;;;;;;26.38;13.68;;;;;;;5.10;100.00;97085.91;5031119;28;20029;-92
2021/11/22 01:33:19;;;;;;;33.83;14.88;;;;;;;5.07;100.00;97092.22;5053293;28;20039;-93
2021/11/22 01:35:45;;;;;;;26.08;13.23;;;;;;;5.03;100.00;97065.91;5031411;28;20028;-92
2021/11/22 01:38:15;;;;;;;31.67;14.23;;;;;;;5.01;100.00;97066.00;5023638;28;20051;-90
2021/11/22 01:40:41;;;;;;;32.97;14.60;;;;;;;5.04;100.00;97075.59;5053931;28;20044;-92
2021/11/22 01:43:14;;;;;;;34.88;15.38;;;;;;;5.08;100.00;97079.78;5068479;28;20416;-91
2021/11/22 01:45:48;;;;;;;29.95;14.07;;;;;;;5.09;100.00;97079.72;5071349;28;20025;-91
2021/11/22 01:48:15;;;;;;;32.28;14.35;;;;;;;4.92;100.00;97040.78;5055520;28;20033;-91
2021/11/22 01:50:42;;;;;;;39.40;16.15;;;;;;;4.96;100.00;97051.22;5045184;28;20518;-92
2021/11/22 01:53:08;;;;;;;31.45;15.45;;;;;;;5.01;100.00;97060.72;5052735;28;20032;-91
2021/11/22 01:55:33;;;;;;;37.25;16.75;;;;;;;5.09;100.00;97069.13;5057994;28;20032;-90
2021/11/22 01:58:00;;;;;;;43.65;17.90;;;;;;;4.96;100.00;97061.84;5067627;28;20031;-91
2021/11/22 02:00:34;;;;;;;40.45;15.70;;;;;;;5.08;100.00;97067.41;5048674;28;20064;-91
2021/11/22 02:03:02;;;;;;;40.40;17.65;;;;;;;4.97;100.00;97066.22;5051574;28;20031;-92
2021/11/22 02:05:28;;;;;;;55.22;21.85;;;;;;;4.99;100.00;97080.22;5048319;28;21049;-91
2021/11/22 02:08:31;;;;;;;84.30;29.67;;;;;;;4.81;100.00;97058.13;5075102;28;20037;-90
2021/11/22 02:10:57;;;;;;;66.82;25.02;;;;;;;4.92;100.00;97074.41;5054527;28;20100;-90
2021/11/22 02:13:22;;;;;;;58.40;24.83;;;;;;;4.67;100.00;97044.69;5053616;28;20166;-92
2021/11/22 02:15:48;;;;;;;49.28;21.27;;;;;;;4.71;100.00;97063.00;5068023;28;20032;-92
2021/11/22 02:18:15;;;;;;;52.40;22.27;;;;;;;4.81;100.00;97082.84;5053870;28;20119;-91
2021/11/22 02:20:41;;;;;;;55.05;21.20;;;;;;;4.83;100.00;97073.00;5055651;28;20035;-90
2021/11/22 02:26:30;;;;;;;43.40;18.30;;;;;;;4.93;100.00;97089.34;5037141;28;20048;-89
2021/11/22 02:28:56;;;;;;;28.15;13.40;;;;;;;4.83;100.00;97065.06;5056432;28;20024;-92
2021/11/22 02:31:22;;;;;;;32.30;16.10;;;;;;;4.88;100.00;97081.63;5048311;28;20042;-90
2021/11/22 02:33:53;;;;;;;25.85;11.63;;;;;;;4.81;100.00;97059.00;5055051;28;20104;-92
2021/11/22 02:36:18;;;;;;;25.77;12.82;;;;;;;5.00;100.00;97074.88;5048551;28;20487;-92
2021/11/22 02:38:44;;;;;;;33.00;16.95;;;;;;;4.97;100.00;97084.75;5077158;28;20116;-91
2021/11/22 02:41:11;;;;;;;31.55;17.08;;;;;;;4.93;100.00;97071.66;5055413;28;20491;-93
2021/11/22 02:43:39;;;;;;;16.40;8.57;;;;;;;5.00;100.00;97045.72;5054966;28;20047;-91
2021/11/22 02:46:05;;;;;;;24.75;13.50;;;;;;;5.14;100.00;97068.91;5042588;28;20028;-92
2021/11/22 02:48:33;;;;;;;26.70;14.48;;;;;;;5.25;100.00;97082.50;5058514;28;20032;-91
2021/11/22 02:50:59;;;;;;;27.27;14.20;;;;;;;5.18;100.00;97054.56;5051289;28;20020;-91
2021/11/22 02:53:25;;;;;;;34.45;15.85;;;;;;;5.25;100.00;97070.13;5058010;28;20087;-92
2021/11/22 02:55:52;;;;;;;35.40;18.25;;;;;;;5.34;100.00;97068.81;5052286;28;20430;-92
2021/11/22 02:58:21;;;;;;;32.35;16.05;;;;;;;5.30;100.00;97056.63;5049895;28;20024;-91
2021/11/22 03:00:47;;;;;;;35.95;18.20;;;;;;;5.37;100.00;97060.69;5050647;28;20120;-91
2021/11/22 03:03:13;;;;;;;33.30;17.27;;;;;;;5.42;100.00;97061.31;5042565;28;20060;-90
2021/11/22 03:05:38;;;;;;;49.97;24.98;;;;;;;5.39;100.00;97062.34;5052368;28;20031;-91
2021/11/22 03:08:04;;;;;;;24.98;11.00;;;;;;;5.31;100.00;97053.06;5053239;28;20031;-92
2021/11/22 03:10:30;;;;;;;30.75;16.15;;;;;;;5.41;100.00;97063.09;5048741;28;20165;-91
2021/11/22 03:12:58;;;;;;;23.02;10.35;;;;;;;5.42;100.00;97061.31;5049321;28;20111;-91
2021/11/22 03:15:23;;;;;;;23.52;12.20;;;;;;;5.55;100.00;97059.78;5065793;28;20024;-91
2021/11/22 03:17:49;;;;;;;23.92;13.25;;;;;;;5.52;99.61;97053.78;5049040;28;20510;-91
2021/11/22 03:20:17;;;;;;;37.28;18.63;;;;;;;5.72;100.00;97083.66;5052666;28;20028;-90
2021/11/22 03:22:43;;;;;;;31.60;15.05;;;;;;;5.64;99.28;97071.72;5050848;28;20025;-91
2021/11/22 03:25:11;;;;;;;22.65;12.30;;;;;;;5.67;99.50;97083.03;5041276;28;20029;-91
2021/11/22 03:27:38;;;;;;;12.40;6.60;;;;;;;5.90;98.75;97077.47;5052515;28;20032;-90
2021/11/22 03:30:06;;;;;;;22.40;13.38;;;;;;;5.93;97.48;97081.78;5047528;28;20561;-91
2021/11/22 03:32:32;;;;;;;29.83;16.52;;;;;;;5.84;98.09;97082.22;5045445;28;20032;-93
2021/11/22 03:34:58;;;;;;;22.45;12.77;;;;;;;5.78;98.43;97080.69;5051665;28;20034;-92
2021/11/22 03:37:24;;;;;;;33.80;20.20;;;;;;;5.78;99.03;97069.25;5049753;28;20024;-92
2021/11/22 03:39:52;;;;;;;22.85;11.88;;;;;;;5.78;98.28;97075.41;5055765;28;20196;-92
2021/11/22 03:42:18;;;;;;;20.00;10.98;;;;;;;5.77;98.70;97078.13;5066764;28;20035;-91
2021/11/22 03:44:45;;;;;;;20.38;11.07;;;;;;;5.77;98.69;97088.75;5045428;28;20028;-91
2021/11/22 03:47:11;;;;;;;15.88;8.25;;;;;;;5.69;99.43;97075.84;5052874;28;20028;-92
2021/11/22 03:49:37;;;;;;;12.90;8.15;;;;;;;5.48;99.79;97040.66;5044534;28;20026;-92
2021/11/22 03:52:03;;;;;;;22.27;12.60;;;;;;;5.72;99.83;97064.25;5056180;28;20028;-92
2021/11/22 03:54:30;;;;;;;22.42;9.93;;;;;;;5.86;98.61;97090.97;5047544;28;20024;-91
2021/11/22 03:56:55;;;;;;;18.58;10.43;;;;;;;5.80;99.08;97092.13;5046612;28;20023;-91
2021/11/22 03:59:22;;;;;;;22.25;12.15;;;;;;;5.61;100.00;97067.44;5052444;28;20547;-93
2021/11/22 04:01:47;;;;;;;18.13;9.82;;;;;;;5.67;100.00;97098.97;5051938;28;20067;-92
2021/11/22 04:04:15;;;;;;;49.90;18.67;;;;;;;5.60;99.83;97094.88;5049753;28;20052;-92
2021/11/22 04:06:41;;;;;;;35.03;13.68;;;;;;;5.42;100.00;97098.44;5045214;28;20555;-91
2021/11/22 04:09:06;;;;;;;40.08;16.48;;;;;;;5.34;100.00;97098.84;5060734;28;20099;-91
2021/11/22 04:11:33;;;;;;;32.08;15.43;;;;;;;5.23;100.00;97090.53;5058707;28;20031;-91
2021/11/22 04:13:59;;;;;;;32.38;13.75;;;;;;;5.22;100.00;97082.66;5060506;28;20087;-91
2021/11/22 04:16:24;;;;;;;24.63;11.45;;;;;;;5.21;100.00;97094.19;5053533;28;20040;-91
2021/11/22 04:18:50;;;;;;;30.48;12.50;;;;;;;5.06;100.00;97079.03;5048244;28;20032;-91
2021/11/22 04:21:18;;;;;;;71.32;26.88;;;;;;;4.91;100.00;97081.47;5065958;28;20517;-92
2021/11/22 04:23:44;;;;;;;141.88;54.30;;;;;;;4.90;100.00;97085.06;5049832;28;20099;-92
2021/11/22 04:26:11;;;;;;;95.78;40.90;;;;;;;4.81;100.00;97074.88;5051257;28;20507;-92
2021/11/22 04:28:38;;;;;;;89.43;34.70;;;;;;;4.77;100.00;97065.34;5069922;28;20059;-90
2021/11/22 04:31:56;;;;;;;66.28;28.05;;;;;;;5.04;100.00;97099.44;5048493;28;20028;-91
2021/11/22 04:34:22;;;;;;;55.28;24.25;;;;;;;4.97;100.00;97090.06;5055986;28;20016;-92
2021/11/22 04:36:48;;;;;;;28.50;12.23;;;;;;;4.97;100.00;97082.97;5057661;28;20467;-91
2021/11/22 04:39:14;;;;;;;69.85;31.17;;;;;;;5.15;100.00;97099.78;5048225;28;20154;-91
2021/11/22 04:41:39;;;;;;;67.93;28.50;;;;;;;5.16;100.00;97107.69;5048459;28;20034;-91
2021/11/22 04:44:05;;;;;;;63.67;27.52;;;;;;;5.02;100.00;97091.56;5049460;28;20031;-91
2021/11/22 04:46:34;;;;;;;61.10;28.30;;;;;;;5.17;100.00;97113.84;5049485;28;20116;-91
2021/11/22 04:48:59;;;;;;;67.32;28.90;;;;;;;5.00;100.00;97100.50;5050595;28;20448;-91
2021/11/22 04:51:26;;;;;;;69.82;29.27;;;;;;;5.09;100.00;97118.63;5049010;28;20032;-91
2021/11/22 04:53:52;;;;;;;73.03;30.52;;;;;;;5.01;100.00;97102.25;5048804;28;20403;-91
2021/11/22 04:56:21;;;;;;;64.18;27.02;;;;;;;5.01;100.00;97099.59;5045413;28;20020;-91
2021/11/22 04:58:55;;;;;;;52.45;23.33;;;;;;;4.99;100.00;97104.09;5044067;28;20173;-91
2021/11/22 05:01:21;;;;;;;54.53;25.23;;;;;;;5.00;100.00;97106.69;5043985;28;20035;-92
2021/11/22 05:03:48;;;;;;;90.30;39.33;;;;;;;4.86;100.00;97087.94;5057020;28;20024;-92
2021/11/22 05:06:14;;;;;;;77.22;37.80;;;;;;;4.93;100.00;97122.00;5026239;28;20025;-91
2021/11/22 05:08:40;;;;;;;64.25;30.27;;;;;;;4.82;100.00;97108.41;5055771;28;20024;-91
2021/11/22 05:11:05;;;;;;;66.15;26.38;;;;;;;4.76;100.00;97108.69;5045763;28;20051;-90
2021/11/22 05:13:31;;;;;;;111.40;52.30;;;;;;;4.81;100.00;97103.16;5046283;28;20036;-81
2021/11/22 05:15:57;;;;;;;87.07;36.42;;;;;;;4.71;100.00;97100.06;5047393;28;20032;-92
2021/11/22 05:18:23;;;;;;;83.95;39.78;;;;;;;4.83;100.00;97110.09;5054104;28;20032;-91
2021/11/22 05:20:49;;;;;;;99.93;46.03;;;;;;;4.91;100.00;97131.81;5049077;28;20039;-91
2021/11/22 05:23:14;;;;;;;91.80;42.05;;;;;;;4.85;100.00;97112.69;5048609;28;20567;-91
2021/11/22 05:25:41;;;;;;;80.55;38.70;;;;;;;4.82;100.00;97116.34;5056373;28;20027;-92
2021/11/22 05:28:07;;;;;;;72.65;36.88;;;;;;;4.98;100.00;97129.75;5042693;28;20035;-92
2021/11/22 05:30:33;;;;;;;81.70;33.35;;;;;;;4.96;100.00;97121.00;5049098;28;20024;-92
2021/11/22 05:33:01;;;;;;;78.70;35.63;;;;;;;4.90;100.00;97122.16;5044516;28;20042;-94
2021/11/22 05:38:49;;;;;;;54.33;25.15;;;;;;;4.90;100.00;97118.63;5077076;28;20040;-85
2021/11/22 05:52:02;;;;;;;;;;;;;;;;;;;;;
2021/11/22 05:54:49;;;;;;;92.00;42.33;;;;;;;5.13;100.00;97159.97;4963384;28;20125;-91
2021/11/22 06:00:48;;;;;;;35.83;15.02;;;;;;;5.08;100.00;97101.00;4965829;28;20031;-86
2021/11/22 06:14:24;;;;;;;55.30;28.15;;;;;;;5.96;100.00;97174.50;4991124;28;20041;-92
2021/11/22 06:17:26;;;;;;;10.77;6.05;;;;;;;6.19;100.00;97085.72;4931213;29;20046;-92
2021/11/22 06:20:24;;;;;;;23.50;12.48;;;;;;;7.33;99.90;97178.75;4918851;29;20039;-90
2021/11/22 06:22:53;;;;;;;60.08;28.17;;;;;;;7.60;94.43;97146.16;4921065;28;20028;-91
2021/11/22 06:25:19;;;;;;;80.53;41.58;;;;;;;9.29;85.56;97160.03;5021913;28;20037;-92
2021/11/22 06:27:58;;;;;;;78.85;35.17;;;;;;;11.02;74.36;97149.25;5019435;28;20038;-92
2021/11/22 06:30:30;;;;;;;67.15;32.42;;;;;;;12.94;62.49;97119.66;5029434;28;20040;-91
2021/11/22 06:33:06;;;;;;;13.82;7.97;;;;;;;14.58;55.20;97111.59;5021824;28;20037;-91
2021/11/22 06:35:36;;;;;;;68.82;35.70;;;;;;;16.07;50.44;97135.16;5028241;28;20034;-93
2021/11/22 06:38:03;;;;;;;73.72;37.75;;;;;;;16.47;49.33;97164.78;5020641;28;20116;-93
2021/11/22 06:40:54;;;;;;;58.30;31.77;;;;;;;18.06;45.50;97173.88;5021155;28;20053;-92
2021/11/22 08:05:07;;;;;;;11.18;5.75;;;;;;;25.92;30.44;97118.47;5078910;28;20083;-91
2021/11/22 08:07:37;;;;;;;11.88;6.00;;;;;;;26.45;29.66;97085.84;5044066;28;20403;-92
2021/11/22 08:10:15;;;;;;;9.02;4.93;;;;;;;26.80;29.43;97073.72;5046165;28;20101;-91
2021/11/22 08:12:51;;;;;;;9.82;5.97;;;;;;;27.67;28.29;97085.41;5044589;28;20088;-92
2021/11/22 08:15:20;;;;;;;8.05;4.35;;;;;;;27.72;27.80;97085.59;5043937;28;20028;-91
2021/11/22 08:17:46;;;;;;;8.90;4.63;;;;;;;27.83;28.04;97097.88;5043201;28;20024;-93
2021/11/22 08:20:16;;;;;;;10.48;4.88;;;;;;;27.23;28.71;97072.28;5041417;28;20028;-92
2021/11/22 08:22:55;;;;;;;12.52;5.63;;;;;;;27.77;27.94;97074.84;5042764;28;20084;-94
2021/11/22 08:25:40;;;;;;;9.52;5.30;;;;;;;28.12;28.05;97075.41;5045266;28;20032;-93
2021/11/22 08:28:11;;;;;;;10.68;5.40;;;;;;;28.87;27.48;97098.59;5024319;28;20432;-93
2021/11/22 08:30:47;;;;;;;8.35;5.47;;;;;;;28.82;27.43;97076.41;5025285;28;20033;-93
2021/11/22 08:33:27;;;;;;;13.52;6.80;;;;;;;29.44;27.20;97097.59;5039787;28;20492;-93
2021/11/22 08:35:53;;;;;;;10.25;6.65;;;;;;;28.15;27.93;97085.16;5026182;28;20029;-91
2021/11/22 08:38:19;;;;;;;12.07;7.03;;;;;;;26.63;29.75;97113.56;5028269;28;20052;-90
2021/11/22 08:40:47;;;;;;;17.30;7.05;;;;;;;27.33;29.09;97069.97;5033992;28;20075;-93
2021/11/22 08:43:16;;;;;;;9.93;5.70;;;;;;;27.91;28.60;97103.97;5043487;28;20034;-93
2021/11/22 08:45:47;;;;;;;9.02;6.07;;;;;;;27.81;28.53;97098.06;5043994;28;20020;-93
2021/11/22 08:51:48;;;;;;;11.07;7.22;;;;;;;28.56;27.90;97068.22;4977349;28;20085;-76
2021/11/22 08:54:14;;;;;;;9.73;6.78;;;;;;;28.67;33.31;97133.66;4996373;28;20059;-76
2021/11/22 08:56:40;;;;;;;8.48;5.85;;;;;;;29.85;28.12;97130.13;5051031;28;20407;-78
2021/11/22 08:59:06;;;;;;;7.65;5.35;;;;;;;30.41;32.43;97143.81;5051986;28;20029;-75
2021/11/22 09:01:32;;;;;;;7.78;5.03;;;;;;;30.95;34.08;97156.75;5035895;28;20028;-76
2021/11/22 09:03:57;;;;;;;6.70;4.85;;;;;;;32.19;25.93;97120.78;5052749;28;20037;-74
2021/11/22 09:06:23;;;;;;;7.57;5.72;;;;;;;32.82;26.67;97122.75;5052388;28;20043;-75
2021/11/22 09:08:50;;;;;;;12.10;5.13;;;;;;;32.85;27.69;97125.88;5052131;28;20546;-76
2021/11/22 09:11:16;;;;;;;8.63;4.32;;;;;;;30.59;26.57;97103.22;5035845;28;20131;-75
2021/11/22 09:13:42;;;;;;;11.88;7.53;;;;;;;32.36;28.80;97121.75;5035530;28;20032;-77
2021/11/22 09:16:09;;;;;;;15.65;7.93;;;;;;;31.66;26.40;97094.03;5037966;28;20032;-75
2021/11/22 09:18:38;;;;;;;7.00;4.32;;;;;;;28.98;28.94;97100.63;5056328;28;20039;-74
2021/11/22 09:21:04;;;;;;;4.55;3.50;;;;;;;31.74;26.70;97105.84;5056066;28;20082;-75
2021/11/22 09:23:31;;;;;;;17.45;6.15;;;;;;;32.28;24.59;97091.63;5039754;28;20025;-75
2021/11/22 09:25:58;;;;;;;18.48;6.05;;;;;;;32.63;25.52;97105.47;5039714;28;20037;-76
2021/11/22 09:28:24;;;;;;;22.55;11.02;;;;;;;33.74;27.44;97114.03;5055562;28;20020;-74
2021/11/22 09:30:50;;;;;;;7.43;4.55;;;;;;;31.92;27.05;97076.13;5039249;28;20036;-75
2021/11/22 09:33:16;;;;;;;7.35;4.13;;;;;;;31.65;25.14;97067.47;5038942;28;20135;-75
2021/11/22 09:35:42;;;;;;;6.45;4.32;;;;;;;32.03;24.12;97077.22;5054941;28;20036;-75
2021/11/22 09:38:09;;;;;;;7.57;4.50;;;;;;;32.23;25.27;97083.22;5038025;28;20098;-76
2021/11/22 09:40:39;;;;;;;4.28;3.70;;;;;;;31.52;27.83;97092.59;5036422;28;20496;-75
2021/11/22 09:43:05;;;;;;;5.63;4.15;;;;;;;31.90;25.80;97069.16;5055580;28;20107;-80
2021/11/22 09:45:31;;;;;;;5.55;4.00;;;;;;;30.95;26.24;97062.81;5055642;28;20575;-78
2021/11/22 09:47:58;;;;;;;6.97;3.88;;;;;;;31.50;25.10;97064.28;5037950;28;20028;-76
2021/11/22 09:50:24;;;;;;;8.65;3.60;;;;;;;31.38;25.79;97068.13;5038682;28;20530;-77
2021/11/22 09:52:50;;;;;;;7.95;4.13;;;;;;;31.59;25.60;97068.41;5039055;28;20036;-76
2021/11/22 09:55:17;;;;;;;8.07;4.57;;;;;;;31.55;24.37;97069.13;5055131;28;20480;-78
2021/11/22 09:57:42;;;;;;;15.82;6.60;;;;;;;30.53;26.42;97054.47;5037942;28;20029;-77
2021/11/22 10:00:10;;;;;;;9.18;6.13;;;;;;;29.96;28.30;97079.75;5038737;28;20032;-77
2021/11/22 10:02:43;;;;;;;14.35;6.00;;;;;;;28.79;28.68;97069.41;5038745;28;20047;-76
2021/11/22 10:05:30;;;;;;;11.43;6.18;;;;;;;28.04;29.25;97083.84;5055377;28;20063;-77
2021/11/22 10:08:06;;;;;;;18.50;7.40;;;;;;;28.45;28.32;97070.63;5035116;28;20032;-79
2021/11/22 10:10:47;;;;;;;13.75;8.05;;;;;;;28.57;28.08;97064.41;5072945;28;20471;-77
2021/11/22 10:13:38;;;;;;;9.93;5.60;;;;;;;28.51;28.75;97074.41;5050548;28;20059;-77
2021/11/22 10:16:07;;;;;;;11.25;5.32;;;;;;;28.80;28.67;97061.97;5038227;28;20526;-78
2021/11/22 10:18:40;;;;;;;19.60;3.75;;;;;;;27.17;30.26;97059.41;5070848;28;20452;-78
2021/11/22 10:21:08;;;;;;;7.22;4.22;;;;;;;26.84;30.23;97069.50;5035252;28;20581;-78
2021/11/22 10:23:37;;;;;;;22.60;4.00;;;;;;;26.49;30.47;97068.75;5034095;28;20492;-78
2021/11/22 10:26:03;;;;;;;11.95;4.25;;;;;;;25.61;31.55;97071.44;5038104;28;20025;-78
2021/11/22 10:28:31;;;;;;;4.97;3.78;;;;;;;25.41;32.41;97064.97;5055247;28;20182;-80
2021/11/22 10:31:01;;;;;;;5.32;4.00;;;;;;;25.11;32.52;97069.75;5038418;28;20160;-81
2021/11/22 10:33:30;;;;;;;6.15;3.33;;;;;;;25.37;32.42;97063.66;5055150;28;20100;-80
2021/11/22 10:35:59;;;;;;;7.63;4.28;;;;;;;24.99;32.86;97063.13;5055077;28;20021;-81
2021/11/22 10:38:33;;;;;;;9.48;5.03;;;;;;;25.32;32.86;97062.34;5055058;28;20117;-80
2021/11/22 10:41:04;;;;;;;8.63;4.90;;;;;;;26.32;31.11;97050.97;5038677;28;20416;-81
2021/11/22 10:43:33;;;;;;;8.40;4.33;;;;;;;26.72;30.87;97050.03;5054542;28;20396;-81
2021/11/22 10:45:58;;;;;;;6.10;4.38;;;;;;;26.94;30.20;97034.25;5073534;28;20281;-82
2021/11/22 10:48:26;;;;;;;5.90;4.72;;;;;;;27.74;29.25;97045.03;5037643;28;20407;-80
2021/11/22 10:51:21;;;;;;;9.77;3.67;;;;;;;27.17;29.29;97040.19;5037902;28;20027;-81
2021/11/22 10:54:04;;;;;;;7.22;4.22;;;;;;;26.08;30.45;97038.63;5037889;28;20121;-81
2021/11/22 10:56:37;;;;;;;11.43;4.40;;;;;;;24.86;32.14;97036.47;5037791;28;20614;-79
2021/11/22 10:59:08;;;;;;;4.72;3.78;;;;;;;24.22;33.46;97049.25;5037876;28;20119;-81
2021/11/22 11:01:38;;;;;;;6.32;3.80;;;;;;;23.86;33.89;97040.13;5038042;28;20104;-81
2021/11/22 11:04:21;;;;;;;6.00;4.30;;;;;;;23.38;34.63;97012.31;5054461;28;20495;-83
2021/11/22 11:06:54;;;;;;;6.70;4.40;;;;;;;22.94;35.93;97034.13;5054458;28;20064;-84
2021/11/22 11:09:28;;;;;;;9.93;4.47;;;;;;;22.67;36.45;97035.50;5038292;28;20032;-83
2021/11/22 11:12:15;;;;;;;8.80;5.70;;;;;;;22.89;36.13;97041.97;5072588;28;20017;-84
2021/11/22 11:14:50;;;;;;;7.35;4.70;;;;;;;23.08;35.73;97036.00;5053968;28;20044;-82
2021/11/22 11:17:18;;;;;;;10.65;6.95;;;;;;;23.00;36.03;97027.91;5054230;28;20024;-83
2021/11/22 11:19:45;;;;;;;13.15;7.78;;;;;;;23.23;35.66;97036.03;5056212;28;20033;-83
2021/11/22 11:22:12;;;;;;;8.55;5.47;;;;;;;23.01;35.65;97035.06;5054491;28;20039;-82
2021/11/22 11:24:37;;;;;;;9.88;6.40;;;;;;;23.02;35.59;97028.56;5054366;28;20447;-82
2021/11/22 11:27:03;;;;;;;9.07;4.75;;;;;;;23.03;35.76;97034.88;5037700;28;20028;-83
2021/11/22 11:29:29;;;;;;;8.23;4.57;;;;;;;23.23;36.11;97025.97;5037258;28;20177;-83
2021/11/22 11:31:55;;;;;;;9.55;4.82;;;;;;;23.51;34.50;97030.81;5037118;28;20028;-83
2021/11/22 11:34:30;;;;;;;21.85;5.68;;;;;;;23.74;34.42;97028.84;5037323;28;20024;-82
2021/11/22 11:37:10;;;;;;;21.33;6.38;;;;;;;23.77;34.58;97027.63;5033869;28;20044;-84
2021/11/22 11:40:04;;;;;;;8.57;4.93;;;;;;;23.49;34.90;97027.44;5033222;28;20059;-82
2021/11/22 11:42:48;;;;;;;16.92;4.97;;;;;;;23.13;35.00;97028.09;5033751;28;20033;-82
2021/11/22 11:45:26;;;;;;;8.95;4.22;;;;;;;22.72;35.84;97028.69;5009349;28;20037;-83
2021/11/22 11:47:58;;;;;;;5.47;4.05;;;;;;;22.49;36.21;97045.00;5025588;28;20124;-83
2021/11/22 11:50:32;;;;;;;9.82;4.03;;;;;;;22.25;36.50;97028.81;5024567;28;20083;-83
2021/11/22 11:53:03;;;;;;;9.57;4.28;;;;;;;21.84;37.37;97047.25;5039423;28;20520;-83
2021/11/22 11:55:29;;;;;;;5.10;3.40;;;;;;;21.80;37.20;97038.59;5015720;28;20041;-82
2021/11/22 11:58:27;;;;;;;13.30;4.20;;;;;;;21.70;37.57;97048.81;5017300;28;20056;-84
2021/11/22 12:01:02;;;;;;;10.00;3.90;;;;;;;21.85;37.43;97047.06;5006124;28;20036;-82
2021/11/22 12:04:00;;;;;;;6.72;4.35;;;;;;;21.84;37.40;97053.50;4998641;28;20120;-83
2021/11/22 12:06:52;;;;;;;9.75;4.07;;;;;;;22.10;37.05;97051.41;5023978;28;20029;-82
2021/11/22 12:09:38;;;;;;;7.07;4.40;;;;;;;22.04;36.72;97043.94;5038393;28;20100;-82
2021/11/22 12:12:19;;;;;;;7.35;3.50;;;;;;;21.96;36.96;97060.34;5040088;28;20400;-84
2021/11/22 12:15:15;;;;;;;8.07;4.05;;;;;;;21.61;37.35;97047.16;5038068;28;20029;-82
2021/11/22 12:17:40;;;;;;;11.73;3.67;;;;;;;21.39;37.59;97056.06;5027944;28;20033;-81
2021/11/22 12:20:12;;;;;;;4.25;3.17;;;;;;;20.69;38.70;97047.63;5031486;28;20091;-83
2021/11/22 12:22:41;;;;;;;4.97;3.53;;;;;;;20.55;39.05;97062.75;5022373;28;20087;-82
2021/11/22 12:25:08;;;;;;;16.73;3.83;;;;;;;20.55;38.70;97059.16;5017003;28;20043;-83
2021/11/22 12:27:35;;;;;;;10.90;4.22;;;;;;;19.99;39.22;97054.47;5015187;28;20045;-82
2021/11/22 12:30:23;;;;;;;7.00;4.30;;;;;;;19.96;39.64;97062.94;5028166;28;20029;-82
2021/11/22 12:32:48;;;;;;;5.88;4.20;;;;;;;19.53;40.25;97038.69;5050676;28;20107;-82
2021/11/22 12:35:15;;;;;;;10.38;4.88;;;;;;;19.44;40.50;97048.66;5031816;28;20033;-83
2021/11/22 12:37:44;;;;;;;8.10;4.20;;;;;;;19.60;40.11;97080.41;5011209;28;20471;-83
2021/11/22 12:40:15;;;;;;;11.75;4.70;;;;;;;19.41;40.77;97070.69;5049123;28;20033;-82
2021/11/22 12:42:48;;;;;;;10.35;4.47;;;;;;;19.33;40.86;97079.59;5016375;28;20590;-83
2021/11/22 12:45:18;;;;;;;7.45;4.28;;;;;;;19.23;40.72;97070.69;5066048;28;20404;-82
2021/11/22 12:47:44;;;;;;;7.35;3.95;;;;;;;19.27;40.75;97082.94;5016756;28;20037;-82
2021/11/22 12:50:22;;;;;;;8.85;4.55;;;;;;;18.98;40.86;97082.38;5069298;28;20103;-83
2021/11/22 12:53:14;;;;;;;20.00;9.55;;;;;;;18.92;41.31;97086.59;5070716;28;20037;-82
2021/11/22 12:55:45;;;;;;;14.45;6.18;;;;;;;18.95;40.73;97083.56;5070005;28;20035;-82
2021/11/22 12:58:28;;;;;;;16.92;6.50;;;;;;;18.94;40.77;97081.88;5021218;28;20052;-82
2021/11/22 13:01:01;;;;;;;23.23;7.47;;;;;;;18.81;40.36;97073.28;5021933;28;20039;-82
2021/11/22 13:03:29;;;;;;;19.15;6.72;;;;;;;18.82;40.73;97077.72;5020506;28;20021;-81
2021/11/22 13:05:55;;;;;;;14.95;6.82;;;;;;;18.90;40.14;97083.19;5020854;28;20028;-83
2021/11/22 13:08:21;;;;;;;10.25;6.15;;;;;;;18.94;40.40;97081.88;5053758;28;20032;-83
2021/11/22 13:11:15;;;;;;;12.68;5.60;;;;;;;18.90;39.87;97076.91;5054686;28;20492;-83
2021/11/22 13:13:48;;;;;;;13.38;6.50;;;;;;;18.66;40.14;97050.47;5018605;28;20117;-82
2021/11/22 13:16:22;;;;;;;13.73;6.53;;;;;;;18.72;40.55;97081.50;5020861;28;20024;-84
2021/11/22 13:19:07;;;;;;;;;;;;;;;;;;;;;
2021/11/22 13:21:50;;;;;;;15.18;6.70;;;;;;;18.42;41.07;97099.00;5038053;28;20431;-82
2021/11/22 13:24:19;;;;;;;12.68;7.00;;;;;;;18.38;41.38;97094.88;5020337;28;20037;-82
2021/11/22 13:26:45;;;;;;;15.35;6.93;;;;;;;18.35;41.33;97098.75;5019963;28;20029;-84
2021/11/22 13:29:16;;;;;;;12.30;7.68;;;;;;;18.31;41.43;97093.78;5020285;28;20056;-83
2021/11/22 13:31:47;;;;;;;15.82;7.90;;;;;;;18.27;41.75;97093.25;5019917;28;20489;-81
2021/11/22 13:34:14;;;;;;;13.57;8.48;;;;;;;18.15;42.02;97104.47;5069629;28;20025;-83
2021/11/22 13:36:48;;;;;;;15.88;8.07;;;;;;;18.10;42.34;97110.31;5057253;28;20496;-82